sensor_id;sensor_type;location;lat;lon;timestamp;temperature;humidity
22153;DHT22;11242;50.536;12.688;2023-11-22T00:00:29;-0.10;99.90
22153;DHT22;11242;50.536;12.688;2023-11-22T00:02:54;-0.10;99.90
22153;DHT22;11242;50.536;12.688;2023-11-22T00:05:20;-0.10;99.90
22153;DHT22;11242;50.536;12.688;2023-11-22T00:07:46;-0.10;99.90
22153;DHT22;11242;50.536;12.688;2023-11-22T00:10:12;-0.10;99.90
22153;DHT22;11242;50.536;12.688;2023-11-22T00:12:39;-0.10;99.90
22153;DHT22;11242;50.536;12.688;2023-11-22T00:15:05;-0.10;99.90
22153;DHT22;11242;50.536;12.688;2023-11-22T00:17:32;-0.20;99.90
22153;DHT22;11242;50.536;12.688;2023-11-22T00:19:58;-0.20;99.90
22153;DHT22;11242;50.536;12.688;2023-11-22T00:22:26;-0.30;99.90
22153;DHT22;11242;50.536;12.688;2023-11-22T00:24:53;-0.30;99.90
22153;DHT22;11242;50.536;12.688;2023-11-22T00:27:19;-0.30;99.90
22153;DHT22;11242;50.536;12.688;2023-11-22T00:29:44;-0.40;99.90
22153;DHT22;11242;50.536;12.688;2023-11-22T00:32:11;-0.40;99.90
22153;DHT22;11242;50.536;12.688;2023-11-22T00:34:37;-0.40;99.90
22153;DHT22;11242;50.536;12.688;2023-11-22T00:37:02;-0.40;99.90
22153;DHT22;11242;50.536;12.688;2023-11-22T00:39:28;-0.40;99.90
22153;DHT22;11242;50.536;12.688;2023-11-22T00:41:53;-0.30;99.90
22153;DHT22;11242;50.536;12.688;2023-11-22T00:44:21;-0.30;99.90
22153;DHT22;11242;50.536;12.688;2023-11-22T00:46:47;-0.30;99.90
22153;DHT22;11242;50.536;12.688;2023-11-22T00:49:13;-0.40;99.90
22153;DHT22;11242;50.536;12.688;2023-11-22T00:51:39;-0.40;99.90
22153;DHT22;11242;50.536;12.688;2023-11-22T00:54:04;-0.40;99.90
22153;DHT22;11242;50.536;12.688;2023-11-22T00:56:30;-0.40;99.90
22153;DHT22;11242;50.536;12.688;2023-11-22T00:58:56;-0.40;99.90
22153;DHT22;11242;50.536;12.688;2023-11-22T01:01:25;-0.50;99.90
22153;DHT22;11242;50.536;12.688;2023-11-22T01:03:51;-0.60;99.90
22153;DHT22;11242;50.536;12.688;2023-11-22T01:06:16;-0.60;99.90
22153;DHT22;11242;50.536;12.688;2023-11-22T01:08:43;-0.50;99.90
22153;DHT22;11242;50.536;12.688;2023-11-22T01:11:09;-0.60;99.90
22153;DHT22;11242;50.536;12.688;2023-11-22T01:13:34;-0.60;99.90
22153;DHT22;11242;50.536;12.688;2023-11-22T01:16:07;-0.70;99.90
22153;DHT22;11242;50.536;12.688;2023-11-22T01:18:32;-0.60;99.90
22153;DHT22;11242;50.536;12.688;2023-11-22T01:20:58;-0.60;99.90
22153;DHT22;11242;50.536;12.688;2023-11-22T01:23:23;-0.60;99.90
22153;DHT22;11242;50.536;12.688;2023-11-22T01:25:49;-0.70;99.90
22153;DHT22;11242;50.536;12.688;2023-11-22T01:28:15;-0.60;99.90
22153;DHT22;11242;50.536;12.688;2023-11-22T01:30:43;-0.80;99.90
22153;DHT22;11242;50.536;12.688;2023-11-22T01:33:11;-0.80;99.90
22153;DHT22;11242;50.536;12.688;2023-11-22T01:35:37;-0.80;99.90
22153;DHT22;11242;50.536;12.688;2023-11-22T01:38:04;-0.90;99.90
22153;DHT22;11242;50.536;12.688;2023-11-22T01:40:30;-0.90;99.90
22153;DHT22;11242;50.536;12.688;2023-11-22T01:42:57;-0.90;99.90
22153;DHT22;11242;50.536;12.688;2023-11-22T01:45:23;-0.90;99.90
22153;DHT22;11242;50.536;12.688;2023-11-22T01:47:48;-0.90;99.90
22153;DHT22;11242;50.536;12.688;2023-11-22T01:50:14;-0.80;99.90
22153;DHT22;11242;50.536;12.688;2023-11-22T01:52:40;-0.90;99.90
22153;DHT22;11242;50.536;12.688;2023-11-22T01:55:07;-0.90;99.90
22153;DHT22;11242;50.536;12.688;2023-11-22T01:57:34;-1.00;99.90
22153;DHT22;11242;50.536;12.688;2023-11-22T02:00:04;-1.00;99.90
22153;DHT22;11242;50.536;12.688;2023-11-22T02:02:38;-1.00;99.90
22153;DHT22;11242;50.536;12.688;2023-11-22T02:05:04;-1.00;99.90
22153;DHT22;11242;50.536;12.688;2023-11-22T02:07:31;-1.00;99.90
22153;DHT22;11242;50.536;12.688;2023-11-22T02:10:00;-1.00;99.90
22153;DHT22;11242;50.536;12.688;2023-11-22T02:12:28;-1.00;99.90
22153;DHT22;11242;50.536;12.688;2023-11-22T02:14:53;-1.00;99.90
22153;DHT22;11242;50.536;12.688;2023-11-22T02:17:19;-1.00;99.90
22153;DHT22;11242;50.536;12.688;2023-11-22T02:19:45;-1.00;99.90
22153;DHT22;11242;50.536;12.688;2023-11-22T02:22:12;-1.00;99.90
22153;DHT22;11242;50.536;12.688;2023-11-22T02:24:37;-1.00;99.90
22153;DHT22;11242;50.536;12.688;2023-11-22T02:27:03;-1.00;99.90
22153;DHT22;11242;50.536;12.688;2023-11-22T02:29:29;-0.90;99.90
22153;DHT22;11242;50.536;12.688;2023-11-22T02:31:54;-1.00;99.90
22153;DHT22;11242;50.536;12.688;2023-11-22T02:34:20;-1.00;99.90
22153;DHT22;11242;50.536;12.688;2023-11-22T02:36:45;-1.00;99.90
22153;DHT22;11242;50.536;12.688;2023-11-22T02:39:11;-1.00;99.90
22153;DHT22;11242;50.536;12.688;2023-11-22T02:41:38;-1.00;99.90
22153;DHT22;11242;50.536;12.688;2023-11-22T02:44:04;-1.10;99.90
22153;DHT22;11242;50.536;12.688;2023-11-22T02:46:32;-1.10;99.90
22153;DHT22;11242;50.536;12.688;2023-11-22T02:48:59;-1.10;99.90
22153;DHT22;11242;50.536;12.688;2023-11-22T02:51:25;-1.20;99.90
22153;DHT22;11242;50.536;12.688;2023-11-22T02:53:51;-1.20;99.90
22153;DHT22;11242;50.536;12.688;2023-11-22T02:56:17;-1.10;99.90
22153;DHT22;11242;50.536;12.688;2023-11-22T02:58:43;-1.10;99.90
22153;DHT22;11242;50.536;12.688;2023-11-22T03:01:09;-1.10;99.90
22153;DHT22;11242;50.536;12.688;2023-11-22T03:03:35;-1.10;99.90
22153;DHT22;11242;50.536;12.688;2023-11-22T03:06:00;-1.10;99.90
22153;DHT22;11242;50.536;12.688;2023-11-22T03:08:26;-1.20;99.90
22153;DHT22;11242;50.536;12.688;2023-11-22T03:11:01;-1.20;99.90
22153;DHT22;11242;50.536;12.688;2023-11-22T03:13:27;-1.20;99.90
22153;DHT22;11242;50.536;12.688;2023-11-22T03:15:53;-1.20;99.90
22153;DHT22;11242;50.536;12.688;2023-11-22T03:18:19;-1.20;99.90
22153;DHT22;11242;50.536;12.688;2023-11-22T03:20:46;-1.20;99.90
22153;DHT22;11242;50.536;12.688;2023-11-22T03:23:12;-1.20;99.90
22153;DHT22;11242;50.536;12.688;2023-11-22T03:25:37;-1.20;99.90
22153;DHT22;11242;50.536;12.688;2023-11-22T03:28:03;-1.20;99.90
22153;DHT22;11242;50.536;12.688;2023-11-22T03:30:29;-1.20;99.90
22153;DHT22;11242;50.536;12.688;2023-11-22T03:32:54;-1.10;99.90
22153;DHT22;11242;50.536;12.688;2023-11-22T03:35:21;-1.10;99.90
22153;DHT22;11242;50.536;12.688;2023-11-22T03:37:47;-1.10;99.90
22153;DHT22;11242;50.536;12.688;2023-11-22T03:40:12;-1.20;99.90
22153;DHT22;11242;50.536;12.688;2023-11-22T03:42:39;-1.20;99.90
22153;DHT22;11242;50.536;12.688;2023-11-22T03:45:05;-1.20;99.90
22153;DHT22;11242;50.536;12.688;2023-11-22T03:47:32;-1.20;99.90
22153;DHT22;11242;50.536;12.688;2023-11-22T03:49:59;-1.20;99.90
22153;DHT22;11242;50.536;12.688;2023-11-22T03:52:25;-1.20;99.90
22153;DHT22;11242;50.536;12.688;2023-11-22T03:54:52;-1.20;99.90
22153;DHT22;11242;50.536;12.688;2023-11-22T03:57:18;-1.20;99.90
22153;DHT22;11242;50.536;12.688;2023-11-22T03:59:43;-1.30;99.90
22153;DHT22;11242;50.536;12.688;2023-11-22T04:02:09;-1.20;99.90
22153;DHT22;11242;50.536;12.688;2023-11-22T04:04:36;-1.20;99.90
22153;DHT22;11242;50.536;12.688;2023-11-22T04:07:05;-1.30;99.90
22153;DHT22;11242;50.536;12.688;2023-11-22T04:09:31;-1.30;99.90
22153;DHT22;11242;50.536;12.688;2023-11-22T04:11:56;-1.30;99.90
22153;DHT22;11242;50.536;12.688;2023-11-22T04:14:22;-1.30;99.90
22153;DHT22;11242;50.536;12.688;2023-11-22T04:16:47;-1.30;99.90
22153;DHT22;11242;50.536;12.688;2023-11-22T04:19:13;-1.30;99.90
22153;DHT22;11242;50.536;12.688;2023-11-22T04:21:38;-1.40;99.90
22153;DHT22;11242;50.536;12.688;2023-11-22T04:24:05;-1.40;99.90
22153;DHT22;11242;50.536;12.688;2023-11-22T04:26:30;-1.40;99.90
22153;DHT22;11242;50.536;12.688;2023-11-22T04:28:57;-1.40;99.90
22153;DHT22;11242;50.536;12.688;2023-11-22T04:31:23;-1.40;99.90
22153;DHT22;11242;50.536;12.688;2023-11-22T04:33:49;-1.40;99.90
22153;DHT22;11242;50.536;12.688;2023-11-22T04:36:15;-1.40;99.90
22153;DHT22;11242;50.536;12.688;2023-11-22T04:38:42;-1.40;99.90
22153;DHT22;11242;50.536;12.688;2023-11-22T04:41:07;-1.50;99.90
22153;DHT22;11242;50.536;12.688;2023-11-22T04:43:33;-1.50;99.90
22153;DHT22;11242;50.536;12.688;2023-11-22T04:45:59;-1.50;99.90
22153;DHT22;11242;50.536;12.688;2023-11-22T04:48:24;-1.50;99.90
22153;DHT22;11242;50.536;12.688;2023-11-22T04:50:50;-1.50;99.90
22153;DHT22;11242;50.536;12.688;2023-11-22T04:53:15;-1.40;99.90
22153;DHT22;11242;50.536;12.688;2023-11-22T04:55:42;-1.30;99.90
22153;DHT22;11242;50.536;12.688;2023-11-22T04:58:08;-1.40;99.90
22153;DHT22;11242;50.536;12.688;2023-11-22T05:00:33;-1.40;99.90
22153;DHT22;11242;50.536;12.688;2023-11-22T05:02:59;-1.40;99.90
22153;DHT22;11242;50.536;12.688;2023-11-22T05:05:25;-1.40;99.90
22153;DHT22;11242;50.536;12.688;2023-11-22T05:07:50;-1.40;99.90
22153;DHT22;11242;50.536;12.688;2023-11-22T05:10:16;-1.50;99.90
22153;DHT22;11242;50.536;12.688;2023-11-22T05:12:42;-1.50;99.90
22153;DHT22;11242;50.536;12.688;2023-11-22T05:15:10;-1.50;99.90
22153;DHT22;11242;50.536;12.688;2023-11-22T05:17:35;-1.50;99.90
22153;DHT22;11242;50.536;12.688;2023-11-22T05:20:01;-1.50;99.90
22153;DHT22;11242;50.536;12.688;2023-11-22T05:22:27;-1.50;99.90
22153;DHT22;11242;50.536;12.688;2023-11-22T05:24:53;-1.50;99.90
22153;DHT22;11242;50.536;12.688;2023-11-22T05:27:18;-1.50;99.90
22153;DHT22;11242;50.536;12.688;2023-11-22T05:29:44;-1.50;99.90
22153;DHT22;11242;50.536;12.688;2023-11-22T05:32:10;-1.50;99.90
22153;DHT22;11242;50.536;12.688;2023-11-22T05:34:36;-1.60;99.90
22153;DHT22;11242;50.536;12.688;2023-11-22T05:37:02;-1.60;99.90
22153;DHT22;11242;50.536;12.688;2023-11-22T05:39:27;-1.60;99.90
22153;DHT22;11242;50.536;12.688;2023-11-22T05:41:53;-1.60;99.90
22153;DHT22;11242;50.536;12.688;2023-11-22T05:44:19;-1.60;99.90
22153;DHT22;11242;50.536;12.688;2023-11-22T05:46:45;-1.60;99.90
22153;DHT22;11242;50.536;12.688;2023-11-22T05:49:10;-1.70;99.90
22153;DHT22;11242;50.536;12.688;2023-11-22T05:51:36;-1.70;99.90
22153;DHT22;11242;50.536;12.688;2023-11-22T05:54:03;-1.70;99.90
22153;DHT22;11242;50.536;12.688;2023-11-22T05:56:29;-1.70;99.90
22153;DHT22;11242;50.536;12.688;2023-11-22T05:58:54;-1.70;99.90
22153;DHT22;11242;50.536;12.688;2023-11-22T06:01:20;-1.70;99.90
22153;DHT22;11242;50.536;12.688;2023-11-22T06:03:46;-1.70;99.90
22153;DHT22;11242;50.536;12.688;2023-11-22T06:06:12;-1.70;99.90
22153;DHT22;11242;50.536;12.688;2023-11-22T06:08:39;-1.70;99.90
22153;DHT22;11242;50.536;12.688;2023-11-22T06:11:04;-1.70;99.90
22153;DHT22;11242;50.536;12.688;2023-11-22T06:13:30;-1.70;99.90
22153;DHT22;11242;50.536;12.688;2023-11-22T06:15:56;-1.70;99.90
22153;DHT22;11242;50.536;12.688;2023-11-22T06:18:21;-1.70;99.90
22153;DHT22;11242;50.536;12.688;2023-11-22T06:20:47;-1.70;99.90
22153;DHT22;11242;50.536;12.688;2023-11-22T06:26:04;-1.70;99.90
22153;DHT22;11242;50.536;12.688;2023-11-22T06:28:31;-1.70;99.90
22153;DHT22;11242;50.536;12.688;2023-11-22T06:30:57;-1.70;99.90
22153;DHT22;11242;50.536;12.688;2023-11-22T06:33:22;-1.80;99.90
22153;DHT22;11242;50.536;12.688;2023-11-22T06:35:48;-1.70;99.90
22153;DHT22;11242;50.536;12.688;2023-11-22T06:38:13;-1.80;99.90
22153;DHT22;11242;50.536;12.688;2023-11-22T06:40:39;-1.70;99.90
22153;DHT22;11242;50.536;12.688;2023-11-22T06:43:05;-1.70;99.90
22153;DHT22;11242;50.536;12.688;2023-11-22T06:45:31;-1.60;99.90
22153;DHT22;11242;50.536;12.688;2023-11-22T06:47:56;-1.70;99.90
22153;DHT22;11242;50.536;12.688;2023-11-22T06:50:23;-1.70;99.90
22153;DHT22;11242;50.536;12.688;2023-11-22T06:52:50;-1.70;99.90
22153;DHT22;11242;50.536;12.688;2023-11-22T06:55:15;-1.60;99.90
22153;DHT22;11242;50.536;12.688;2023-11-22T06:57:41;-1.60;99.90
22153;DHT22;11242;50.536;12.688;2023-11-22T07:00:07;-1.70;99.90
22153;DHT22;11242;50.536;12.688;2023-11-22T07:02:35;-1.70;99.90
22153;DHT22;11242;50.536;12.688;2023-11-22T07:05:01;-1.70;99.90
22153;DHT22;11242;50.536;12.688;2023-11-22T07:07:29;-1.60;99.90
22153;DHT22;11242;50.536;12.688;2023-11-22T07:09:55;-1.60;99.90
22153;DHT22;11242;50.536;12.688;2023-11-22T07:12:24;-1.60;99.90
22153;DHT22;11242;50.536;12.688;2023-11-22T07:14:49;-1.60;99.90
22153;DHT22;11242;50.536;12.688;2023-11-22T07:17:15;-1.50;99.90
22153;DHT22;11242;50.536;12.688;2023-11-22T07:19:43;-1.60;99.90
22153;DHT22;11242;50.536;12.688;2023-11-22T07:22:13;-1.60;99.90
22153;DHT22;11242;50.536;12.688;2023-11-22T07:24:45;-1.60;99.90
22153;DHT22;11242;50.536;12.688;2023-11-22T07:27:14;-1.50;99.90
22153;DHT22;11242;50.536;12.688;2023-11-22T07:29:41;-1.50;99.90
22153;DHT22;11242;50.536;12.688;2023-11-22T07:32:07;-1.60;99.90
22153;DHT22;11242;50.536;12.688;2023-11-22T07:34:34;-1.60;99.90
22153;DHT22;11242;50.536;12.688;2023-11-22T07:37:00;-1.60;99.90
22153;DHT22;11242;50.536;12.688;2023-11-22T07:39:26;-1.60;99.90
22153;DHT22;11242;50.536;12.688;2023-11-22T07:41:53;-1.50;99.90
22153;DHT22;11242;50.536;12.688;2023-11-22T07:44:21;-1.40;99.90
22153;DHT22;11242;50.536;12.688;2023-11-22T07:46:46;-1.30;99.90
22153;DHT22;11242;50.536;12.688;2023-11-22T07:49:12;-1.30;99.90
22153;DHT22;11242;50.536;12.688;2023-11-22T07:51:39;-1.40;99.90
22153;DHT22;11242;50.536;12.688;2023-11-22T07:54:05;-1.40;99.90
22153;DHT22;11242;50.536;12.688;2023-11-22T07:56:31;-1.40;99.90
22153;DHT22;11242;50.536;12.688;2023-11-22T07:58:58;-1.40;99.90
22153;DHT22;11242;50.536;12.688;2023-11-22T08:01:24;-1.40;99.90
22153;DHT22;11242;50.536;12.688;2023-11-22T08:03:51;-1.30;99.90
22153;DHT22;11242;50.536;12.688;2023-11-22T08:06:17;-1.30;99.90
22153;DHT22;11242;50.536;12.688;2023-11-22T08:08:43;-1.30;99.90
22153;DHT22;11242;50.536;12.688;2023-11-22T08:11:11;-1.30;99.90
22153;DHT22;11242;50.536;12.688;2023-11-22T08:13:44;-1.30;99.90
22153;DHT22;11242;50.536;12.688;2023-11-22T08:16:10;-1.30;99.90
22153;DHT22;11242;50.536;12.688;2023-11-22T08:18:38;-1.20;99.90
22153;DHT22;11242;50.536;12.688;2023-11-22T08:21:04;-1.20;99.90
22153;DHT22;11242;50.536;12.688;2023-11-22T08:23:30;-1.30;99.90
22153;DHT22;11242;50.536;12.688;2023-11-22T08:25:58;-1.20;99.90
22153;DHT22;11242;50.536;12.688;2023-11-22T08:28:24;-1.20;99.90
22153;DHT22;11242;50.536;12.688;2023-11-22T08:30:51;-1.20;99.90
22153;DHT22;11242;50.536;12.688;2023-11-22T08:33:17;-1.20;99.90
22153;DHT22;11242;50.536;12.688;2023-11-22T08:35:42;-1.10;99.90
22153;DHT22;11242;50.536;12.688;2023-11-22T08:38:08;-1.10;99.90
22153;DHT22;11242;50.536;12.688;2023-11-22T08:40:35;-1.10;99.90
22153;DHT22;11242;50.536;12.688;2023-11-22T08:43:05;-1.00;99.90
22153;DHT22;11242;50.536;12.688;2023-11-22T08:45:30;-1.00;99.90
22153;DHT22;11242;50.536;12.688;2023-11-22T08:47:57;-1.00;99.90
22153;DHT22;11242;50.536;12.688;2023-11-22T08:50:23;-1.10;99.90
22153;DHT22;11242;50.536;12.688;2023-11-22T08:52:49;-1.10;99.90
22153;DHT22;11242;50.536;12.688;2023-11-22T08:55:19;-1.10;99.90
22153;DHT22;11242;50.536;12.688;2023-11-22T08:57:47;-1.10;99.90
22153;DHT22;11242;50.536;12.688;2023-11-22T09:00:13;-1.10;99.90
22153;DHT22;11242;50.536;12.688;2023-11-22T09:02:40;-1.10;99.90
22153;DHT22;11242;50.536;12.688;2023-11-22T09:05:06;-1.00;99.90
22153;DHT22;11242;50.536;12.688;2023-11-22T09:07:36;-1.00;99.90
22153;DHT22;11242;50.536;12.688;2023-11-22T09:10:04;-0.90;99.90
22153;DHT22;11242;50.536;12.688;2023-11-22T09:12:41;-0.90;99.90
22153;DHT22;11242;50.536;12.688;2023-11-22T09:15:08;-1.00;99.90
22153;DHT22;11242;50.536;12.688;2023-11-22T09:17:39;-1.00;99.90
22153;DHT22;11242;50.536;12.688;2023-11-22T09:20:12;-0.90;99.90
22153;DHT22;11242;50.536;12.688;2023-11-22T09:22:44;-1.00;99.90
22153;DHT22;11242;50.536;12.688;2023-11-22T09:25:24;-0.90;99.90
22153;DHT22;11242;50.536;12.688;2023-11-22T09:27:54;-1.00;99.90
22153;DHT22;11242;50.536;12.688;2023-11-22T09:30:28;-0.90;99.90
22153;DHT22;11242;50.536;12.688;2023-11-22T09:33:14;-0.90;99.90
22153;DHT22;11242;50.536;12.688;2023-11-22T09:35:40;-0.80;99.90
22153;DHT22;11242;50.536;12.688;2023-11-22T09:38:08;-0.80;99.90
22153;DHT22;11242;50.536;12.688;2023-11-22T09:40:56;-0.70;99.90
22153;DHT22;11242;50.536;12.688;2023-11-22T09:43:22;-0.70;99.90
22153;DHT22;11242;50.536;12.688;2023-11-22T09:45:50;-0.60;99.90
22153;DHT22;11242;50.536;12.688;2023-11-22T09:48:18;-0.70;99.90
22153;DHT22;11242;50.536;12.688;2023-11-22T09:53:56;-0.60;99.90
22153;DHT22;11242;50.536;12.688;2023-11-22T09:56:25;-0.70;99.90
22153;DHT22;11242;50.536;12.688;2023-11-22T09:58:53;-0.80;99.90
22153;DHT22;11242;50.536;12.688;2023-11-22T10:01:23;-0.80;99.90
22153;DHT22;11242;50.536;12.688;2023-11-22T10:03:49;-0.80;99.90
22153;DHT22;11242;50.536;12.688;2023-11-22T10:06:15;-0.90;99.90
22153;DHT22;11242;50.536;12.688;2023-11-22T10:08:41;-0.90;99.90
22153;DHT22;11242;50.536;12.688;2023-11-22T10:11:07;-0.90;99.90
22153;DHT22;11242;50.536;12.688;2023-11-22T10:13:33;-0.90;99.90
22153;DHT22;11242;50.536;12.688;2023-11-22T10:16:10;-0.90;99.90
22153;DHT22;11242;50.536;12.688;2023-11-22T10:18:43;-0.90;99.90
22153;DHT22;11242;50.536;12.688;2023-11-22T10:21:28;-0.80;99.90
22153;DHT22;11242;50.536;12.688;2023-11-22T10:24:02;-0.80;99.90
22153;DHT22;11242;50.536;12.688;2023-11-22T10:26:29;-0.80;99.90
22153;DHT22;11242;50.536;12.688;2023-11-22T10:28:56;-0.80;99.90
22153;DHT22;11242;50.536;12.688;2023-11-22T10:31:22;-0.90;99.90
22153;DHT22;11242;50.536;12.688;2023-11-22T10:33:48;-0.90;99.90
22153;DHT22;11242;50.536;12.688;2023-11-22T10:36:15;-0.80;99.90
22153;DHT22;11242;50.536;12.688;2023-11-22T10:38:41;-0.80;99.90
22153;DHT22;11242;50.536;12.688;2023-11-22T10:41:08;-0.70;99.90
22153;DHT22;11242;50.536;12.688;2023-11-22T10:43:34;-0.60;99.90
22153;DHT22;11242;50.536;12.688;2023-11-22T10:46:02;-0.50;99.90
22153;DHT22;11242;50.536;12.688;2023-11-22T10:48:28;-0.40;99.90
22153;DHT22;11242;50.536;12.688;2023-11-22T10:50:57;-0.30;99.90
22153;DHT22;11242;50.536;12.688;2023-11-22T10:53:32;-0.20;99.90
22153;DHT22;11242;50.536;12.688;2023-11-22T10:56:12;-0.10;99.90
22153;DHT22;11242;50.536;12.688;2023-11-22T10:58:55;0.00;99.90
22153;DHT22;11242;50.536;12.688;2023-11-22T11:01:24;0.10;99.90
22153;DHT22;11242;50.536;12.688;2023-11-22T11:04:10;0.10;99.90
22153;DHT22;11242;50.536;12.688;2023-11-22T11:06:37;0.20;99.90
22153;DHT22;11242;50.536;12.688;2023-11-22T11:09:06;0.20;99.90
22153;DHT22;11242;50.536;12.688;2023-11-22T11:11:35;0.10;99.90
22153;DHT22;11242;50.536;12.688;2023-11-22T11:14:02;0.00;99.90
22153;DHT22;11242;50.536;12.688;2023-11-22T11:16:30;-0.20;99.90
22153;DHT22;11242;50.536;12.688;2023-11-22T11:18:57;-0.30;99.90
22153;DHT22;11242;50.536;12.688;2023-11-22T11:21:25;-0.40;99.90
22153;DHT22;11242;50.536;12.688;2023-11-22T11:23:52;-0.40;99.90
22153;DHT22;11242;50.536;12.688;2023-11-22T11:26:21;-0.30;99.90
22153;DHT22;11242;50.536;12.688;2023-11-22T11:28:50;-0.40;99.90
22153;DHT22;11242;50.536;12.688;2023-11-22T11:31:17;-0.30;99.90
22153;DHT22;11242;50.536;12.688;2023-11-22T11:36:25;-0.30;99.90
22153;DHT22;11242;50.536;12.688;2023-11-22T11:39:12;-0.10;99.90
22153;DHT22;11242;50.536;12.688;2023-11-22T11:41:41;-0.10;99.90
22153;DHT22;11242;50.536;12.688;2023-11-22T11:44:10;0.00;99.90
22153;DHT22;11242;50.536;12.688;2023-11-22T11:46:37;0.10;99.90
22153;DHT22;11242;50.536;12.688;2023-11-22T11:49:11;-0.10;99.90
22153;DHT22;11242;50.536;12.688;2023-11-22T11:51:38;-0.10;99.90
22153;DHT22;11242;50.536;12.688;2023-11-22T11:54:03;-0.10;99.90
22153;DHT22;11242;50.536;12.688;2023-11-22T11:56:30;-0.10;99.90
22153;DHT22;11242;50.536;12.688;2023-11-22T11:58:57;-0.10;99.90
22153;DHT22;11242;50.536;12.688;2023-11-22T12:01:28;-0.10;99.90
22153;DHT22;11242;50.536;12.688;2023-11-22T12:03:55;-0.10;99.90
22153;DHT22;11242;50.536;12.688;2023-11-22T12:06:21;-0.10;99.90
22153;DHT22;11242;50.536;12.688;2023-11-22T12:08:47;-0.20;99.90
22153;DHT22;11242;50.536;12.688;2023-11-22T12:11:14;-0.20;99.90
22153;DHT22;11242;50.536;12.688;2023-11-22T12:13:41;-0.10;99.90
22153;DHT22;11242;50.536;12.688;2023-11-22T12:16:15;-0.10;99.90
22153;DHT22;11242;50.536;12.688;2023-11-22T12:18:47;-0.10;99.90
22153;DHT22;11242;50.536;12.688;2023-11-22T12:21:13;-0.20;99.90
22153;DHT22;11242;50.536;12.688;2023-11-22T12:23:41;-0.30;99.90
22153;DHT22;11242;50.536;12.688;2023-11-22T12:26:13;-0.30;99.90
22153;DHT22;11242;50.536;12.688;2023-11-22T12:28:40;-0.40;99.90
22153;DHT22;11242;50.536;12.688;2023-11-22T12:31:10;-0.40;99.90
22153;DHT22;11242;50.536;12.688;2023-11-22T12:33:37;-0.40;99.90
22153;DHT22;11242;50.536;12.688;2023-11-22T12:36:03;-0.40;99.90
22153;DHT22;11242;50.536;12.688;2023-11-22T12:41:03;-0.40;99.90
22153;DHT22;11242;50.536;12.688;2023-11-22T12:43:29;-0.40;99.90
22153;DHT22;11242;50.536;12.688;2023-11-22T12:46:04;-0.40;99.90
22153;DHT22;11242;50.536;12.688;2023-11-22T12:48:32;-0.50;99.90
22153;DHT22;11242;50.536;12.688;2023-11-22T12:50:58;-0.50;99.90
22153;DHT22;11242;50.536;12.688;2023-11-22T12:53:25;-0.50;99.90
22153;DHT22;11242;50.536;12.688;2023-11-22T12:55:54;-0.50;99.90
22153;DHT22;11242;50.536;12.688;2023-11-22T12:58:20;-0.40;99.90
22153;DHT22;11242;50.536;12.688;2023-11-22T13:00:49;-0.40;99.90
22153;DHT22;11242;50.536;12.688;2023-11-22T13:03:15;-0.30;99.90
22153;DHT22;11242;50.536;12.688;2023-11-22T13:05:44;-0.30;99.90
22153;DHT22;11242;50.536;12.688;2023-11-22T13:08:11;-0.30;99.90
22153;DHT22;11242;50.536;12.688;2023-11-22T13:10:40;-0.30;99.90
22153;DHT22;11242;50.536;12.688;2023-11-22T13:13:08;-0.30;99.90
22153;DHT22;11242;50.536;12.688;2023-11-22T13:15:36;-0.20;99.90
22153;DHT22;11242;50.536;12.688;2023-11-22T13:18:02;-0.20;99.90
22153;DHT22;11242;50.536;12.688;2023-11-22T13:20:28;-0.20;99.90
22153;DHT22;11242;50.536;12.688;2023-11-22T13:22:54;-0.20;99.90
22153;DHT22;11242;50.536;12.688;2023-11-22T13:25:21;-0.10;99.90
22153;DHT22;11242;50.536;12.688;2023-11-22T13:27:51;-0.10;99.90
22153;DHT22;11242;50.536;12.688;2023-11-22T13:30:19;-0.10;99.90
22153;DHT22;11242;50.536;12.688;2023-11-22T13:32:54;-0.10;99.90
22153;DHT22;11242;50.536;12.688;2023-11-22T13:35:22;-0.10;99.90
22153;DHT22;11242;50.536;12.688;2023-11-22T13:37:48;-0.10;99.90
22153;DHT22;11242;50.536;12.688;2023-11-22T13:40:16;0.00;99.90
22153;DHT22;11242;50.536;12.688;2023-11-22T13:42:45;0.00;99.90
22153;DHT22;11242;50.536;12.688;2023-11-22T13:45:12;0.00;99.90
22153;DHT22;11242;50.536;12.688;2023-11-22T13:47:46;-0.10;99.90
22153;DHT22;11242;50.536;12.688;2023-11-22T13:50:14;-0.10;99.90
22153;DHT22;11242;50.536;12.688;2023-11-22T13:52:50;-0.20;99.90
22153;DHT22;11242;50.536;12.688;2023-11-22T13:55:18;-0.20;99.90
22153;DHT22;11242;50.536;12.688;2023-11-22T13:57:52;-0.20;99.90
22153;DHT22;11242;50.536;12.688;2023-11-22T14:00:19;-0.30;99.90
22153;DHT22;11242;50.536;12.688;2023-11-22T14:02:52;-0.30;99.90
22153;DHT22;11242;50.536;12.688;2023-11-22T14:05:21;-0.50;99.90
22153;DHT22;11242;50.536;12.688;2023-11-22T14:07:47;-0.60;99.90
22153;DHT22;11242;50.536;12.688;2023-11-22T14:10:14;-0.60;99.90
22153;DHT22;11242;50.536;12.688;2023-11-22T14:12:42;-0.60;99.90
22153;DHT22;11242;50.536;12.688;2023-11-22T14:15:08;-0.50;99.90
22153;DHT22;11242;50.536;12.688;2023-11-22T14:17:35;-0.60;99.90
22153;DHT22;11242;50.536;12.688;2023-11-22T14:20:00;-0.50;99.90
22153;DHT22;11242;50.536;12.688;2023-11-22T14:22:26;-0.60;99.90
22153;DHT22;11242;50.536;12.688;2023-11-22T14:24:53;-0.60;99.90
22153;DHT22;11242;50.536;12.688;2023-11-22T14:27:19;-0.60;99.90
22153;DHT22;11242;50.536;12.688;2023-11-22T14:29:48;-0.60;99.90
22153;DHT22;11242;50.536;12.688;2023-11-22T14:32:16;-0.60;99.90
22153;DHT22;11242;50.536;12.688;2023-11-22T14:34:42;-0.60;99.90
22153;DHT22;11242;50.536;12.688;2023-11-22T14:37:10;-0.60;99.90
22153;DHT22;11242;50.536;12.688;2023-11-22T14:39:35;-0.60;99.90
22153;DHT22;11242;50.536;12.688;2023-11-22T14:42:01;-0.60;99.90
22153;DHT22;11242;50.536;12.688;2023-11-22T14:44:27;-0.60;99.90
22153;DHT22;11242;50.536;12.688;2023-11-22T14:46:52;-0.60;99.90
22153;DHT22;11242;50.536;12.688;2023-11-22T14:49:18;-0.60;99.90
22153;DHT22;11242;50.536;12.688;2023-11-22T14:51:46;-0.60;99.90
22153;DHT22;11242;50.536;12.688;2023-11-22T14:54:12;-0.70;99.90
22153;DHT22;11242;50.536;12.688;2023-11-22T14:56:37;-0.70;99.90
22153;DHT22;11242;50.536;12.688;2023-11-22T14:59:04;-0.70;99.90
22153;DHT22;11242;50.536;12.688;2023-11-22T15:01:30;-0.60;99.90
22153;DHT22;11242;50.536;12.688;2023-11-22T15:03:55;-0.60;99.90
22153;DHT22;11242;50.536;12.688;2023-11-22T15:06:21;-0.60;99.90
22153;DHT22;11242;50.536;12.688;2023-11-22T15:08:47;-0.70;99.90
22153;DHT22;11242;50.536;12.688;2023-11-22T15:11:14;-0.70;99.90
22153;DHT22;11242;50.536;12.688;2023-11-22T15:13:41;-0.70;99.90
22153;DHT22;11242;50.536;12.688;2023-11-22T15:16:07;-0.70;99.90
22153;DHT22;11242;50.536;12.688;2023-11-22T15:18:33;-0.70;99.90
22153;DHT22;11242;50.536;12.688;2023-11-22T15:20:58;-0.70;99.90
22153;DHT22;11242;50.536;12.688;2023-11-22T15:23:24;-0.70;99.90
22153;DHT22;11242;50.536;12.688;2023-11-22T15:25:49;-0.70;99.90
22153;DHT22;11242;50.536;12.688;2023-11-22T15:28:15;-0.70;99.90